createdAt,value
2022-09-25T00:01:31.665Z,14.13
2022-09-25T00:04:01.795Z,14.05
2022-09-25T00:06:30.936Z,14.03
2022-09-25T00:08:59.735Z,13.95
2022-09-25T00:11:31.153Z,14.02
2022-09-25T00:14:01.026Z,14.03
2022-09-25T00:16:31.224Z,14.18
2022-09-25T00:19:19.460Z,14.07
2022-09-25T00:21:50.336Z,13.98
2022-09-25T00:24:20.842Z,14.24
2022-09-25T00:26:48.284Z,14.16
2022-09-25T00:29:20.647Z,14.17
2022-09-25T00:31:50.098Z,14.10
2022-09-25T00:34:17.484Z,14.09
2022-09-25T00:36:45.087Z,14.03
2022-09-25T00:39:12.513Z,14.20
2022-09-25T00:41:41.306Z,14.18
2022-09-25T00:44:46.514Z,13.98
2022-09-25T00:47:20.580Z,13.94
2022-09-25T00:49:49.426Z,14.08
2022-09-25T00:52:19.473Z,14.00
2022-09-25T00:55:03.378Z,13.99
2022-09-25T00:57:35.863Z,13.97
2022-09-25T01:00:11.557Z,13.94
2022-09-25T01:02:53.291Z,13.96
2022-09-25T01:05:29.445Z,13.95
2022-09-25T01:07:59.640Z,13.98
2022-09-25T01:10:28.427Z,13.92
2022-09-25T01:12:59.818Z,13.81
2022-09-25T01:15:37.568Z,13.76
2022-09-25T01:18:11.450Z,13.78
2022-09-25T01:20:51.139Z,13.90
2022-09-25T01:23:56.661Z,13.94
2022-09-25T01:26:45.340Z,13.84
2022-09-25T01:29:53.645Z,14.00
2022-09-25T01:32:34.890Z,13.92
2022-09-25T01:35:08.092Z,13.86
2022-09-25T01:37:49.036Z,13.87
2022-09-25T01:40:41.746Z,13.92
2022-09-25T01:43:17.966Z,13.88
2022-09-25T01:46:08.265Z,13.93
2022-09-25T01:48:39.993Z,13.95
2022-09-25T01:51:31.558Z,13.94
2022-09-25T01:54:07.582Z,13.93
2022-09-25T01:56:56.750Z,13.90
2022-09-25T01:59:36.067Z,13.83
2022-09-25T02:02:10.338Z,13.76
2022-09-25T02:04:43.714Z,13.91
2022-09-25T02:07:16.515Z,13.78
2022-09-25T02:10:19.257Z,13.55
2022-09-25T02:12:51.403Z,13.60
2022-09-25T02:15:26.655Z,13.73
2022-09-25T02:18:20.948Z,13.62
2022-09-25T02:21:10.648Z,13.68
2022-09-25T02:24:02.010Z,13.67
2022-09-25T02:26:32.181Z,13.60
2022-09-25T02:28:59.983Z,13.54
2022-09-25T02:31:35.906Z,13.67
2022-09-25T02:34:04.832Z,13.65
2022-09-25T02:36:33.876Z,13.61
2022-09-25T02:39:04.296Z,13.63
2022-09-25T02:41:58.052Z,13.71
2022-09-25T02:44:33.603Z,13.84
2022-09-25T02:47:49.916Z,13.75
2022-09-25T02:50:23.372Z,13.73
2022-09-25T02:52:51.197Z,13.77
2022-09-25T02:55:31.332Z,13.82
2022-09-25T02:58:19.701Z,13.70
2022-09-25T03:00:52.942Z,13.68
2022-09-25T03:03:23.524Z,13.71
2022-09-25T03:05:56.363Z,13.68
2022-09-25T03:08:39.413Z,13.58
2022-09-25T03:11:13.897Z,13.58
2022-09-25T03:13:43.596Z,13.55
2022-09-25T03:16:15.175Z,13.58
2022-09-25T03:18:43.584Z,13.66
2022-09-25T03:21:11.521Z,13.78
2022-09-25T03:23:39.076Z,13.78
2022-09-25T03:26:07.765Z,13.85
2022-09-25T03:28:35.697Z,13.77
2022-09-25T03:31:07.074Z,13.78
2022-09-25T03:33:42.084Z,13.71
2022-09-25T03:36:15.453Z,13.81
2022-09-25T03:38:44.141Z,13.73
2022-09-25T03:41:13.460Z,13.77
2022-09-25T03:43:43.917Z,13.81
2022-09-25T03:46:13.942Z,13.71
2022-09-25T03:48:42.315Z,13.84
2022-09-25T03:51:11.063Z,13.79
2022-09-25T03:53:38.663Z,13.68
2022-09-25T03:56:12.777Z,13.68
2022-09-25T03:58:41.802Z,13.64
2022-09-25T04:01:11.119Z,13.67
2022-09-25T04:03:39.570Z,13.74
2022-09-25T04:06:08.642Z,13.60
2022-09-25T04:08:36.865Z,13.82
2022-09-25T04:11:05.366Z,13.69
2022-09-25T04:13:37.356Z,13.73
2022-09-25T04:16:08.692Z,13.70
2022-09-25T04:18:37.123Z,13.82
2022-09-25T04:21:08.539Z,13.74
2022-09-25T04:23:39.142Z,13.76
2022-09-25T04:26:09.247Z,13.82
2022-09-25T04:28:39.092Z,13.76
2022-09-25T04:31:06.575Z,13.68
2022-09-25T04:33:49.065Z,13.71
2022-09-25T04:36:19.881Z,13.60
2022-09-25T04:38:48.325Z,13.50
2022-09-25T04:41:17.789Z,13.58
2022-09-25T04:43:45.815Z,13.61
2022-09-25T04:46:21.866Z,13.62
2022-09-25T04:48:51.930Z,13.71
2022-09-25T04:51:22.025Z,13.81
2022-09-25T04:53:49.830Z,13.70
2022-09-25T04:56:17.227Z,13.75
2022-09-25T04:58:49.767Z,13.63
2022-09-25T05:01:20.021Z,13.61
2022-09-25T05:03:53.521Z,13.59
2022-09-25T05:06:27.135Z,13.63
2022-09-25T05:08:54.588Z,13.58
2022-09-25T05:11:22.332Z,13.55
2022-09-25T05:13:51.799Z,13.59
2022-09-25T05:16:20.466Z,13.78
2022-09-25T05:18:47.886Z,13.70
2022-09-25T05:21:16.041Z,13.57
2022-09-25T05:23:43.416Z,13.60
2022-09-25T05:26:11.320Z,13.69
2022-09-25T05:28:39.113Z,13.72
2022-09-25T05:31:07.352Z,13.82
2022-09-25T05:33:35.568Z,13.72
2022-09-25T05:36:09.928Z,13.68
2022-09-25T05:38:40.497Z,13.64
2022-09-25T05:41:09.958Z,13.65
2022-09-25T05:43:43.754Z,13.66
2022-09-25T05:46:15.295Z,13.61
2022-09-25T05:48:43.957Z,13.57
2022-09-25T05:51:12.277Z,13.57
2022-09-25T05:53:39.788Z,13.61
2022-09-25T05:56:07.488Z,13.65
2022-09-25T05:58:37.265Z,13.58
2022-09-25T06:01:06.296Z,13.51
2022-09-25T06:03:33.712Z,13.48
2022-09-25T06:06:00.981Z,13.48
2022-09-25T06:08:31.625Z,13.51
2022-09-25T06:11:02.156Z,13.47
2022-09-25T06:13:34.874Z,13.48
2022-09-25T06:16:05.211Z,13.42
2022-09-25T06:18:33.891Z,13.44
2022-09-25T06:21:04.993Z,13.59
2022-09-25T06:23:34.301Z,13.63
2022-09-25T06:26:03.277Z,13.68
2022-09-25T06:28:31.545Z,13.75
2022-09-25T06:31:04.449Z,13.76
2022-09-25T06:33:34.205Z,13.65
2022-09-25T06:36:01.799Z,13.78
2022-09-25T06:38:31.275Z,13.79
2022-09-25T06:41:00.589Z,13.91
2022-09-25T06:43:31.668Z,13.95
2022-09-25T06:46:04.224Z,14.07
2022-09-25T06:48:31.788Z,14.12
2022-09-25T06:51:00.863Z,14.28
2022-09-25T06:53:29.421Z,14.37
2022-09-25T06:56:02.830Z,14.32
2022-09-25T06:58:30.930Z,14.21
2022-09-25T07:00:58.791Z,14.20
2022-09-25T07:03:44.919Z,14.12
2022-09-25T07:06:18.120Z,14.20
2022-09-25T07:08:48.431Z,14.26
2022-09-25T07:11:18.444Z,14.30
2022-09-25T07:13:46.825Z,14.37
2022-09-25T07:16:17.290Z,14.31
2022-09-25T07:18:47.924Z,14.38
2022-09-25T07:21:18.834Z,14.45
2022-09-25T07:23:50.656Z,14.40
2022-09-25T07:26:30.103Z,14.47
2022-09-25T07:29:04.196Z,14.70
2022-09-25T07:31:34.046Z,14.89
2022-09-25T07:34:09.155Z,15.16
2022-09-25T07:36:43.089Z,15.40
2022-09-25T07:39:16.235Z,15.58
2022-09-25T07:41:48.572Z,15.92
2022-09-25T07:44:37.483Z,16.69
2022-09-25T07:47:04.342Z,16.88
2022-09-25T07:49:32.162Z,16.78
2022-09-25T07:51:59.816Z,16.81
2022-09-25T07:54:29.148Z,16.75
2022-09-25T07:56:58.059Z,16.69
2022-09-25T07:59:26.189Z,16.56
2022-09-25T08:01:55.010Z,16.37
2022-09-25T08:04:22.454Z,16.37
2022-09-25T08:06:49.895Z,16.27
2022-09-25T08:09:18.040Z,16.42
2022-09-25T08:11:46.151Z,16.60
2022-09-25T08:14:14.731Z,16.57
2022-09-25T08:16:44.281Z,17.08
2022-09-25T08:19:14.069Z,17.18
2022-09-25T08:21:41.916Z,17.40
2022-09-25T08:24:11.140Z,17.42
2022-09-25T08:26:39.504Z,17.73
2022-09-25T08:29:08.533Z,17.77
2022-09-25T08:31:36.544Z,17.88
2022-09-25T08:34:21.521Z,17.81
2022-09-25T08:36:52.331Z,18.21
2022-09-25T08:39:20.164Z,18.34
2022-09-25T08:41:51.560Z,18.04
2022-09-25T08:44:28.581Z,18.16
2022-09-25T08:47:27.436Z,18.75
2022-09-25T08:50:07.117Z,19.88
2022-09-25T08:52:36.186Z,20.04
2022-09-25T08:55:03.863Z,19.74
2022-09-25T08:57:44.228Z,19.73
2022-09-25T09:00:21.645Z,19.57
2022-09-25T09:02:57.452Z,19.50
2022-09-25T09:05:33.870Z,19.36
2022-09-25T09:08:06.307Z,19.39
2022-09-25T09:10:52.819Z,19.55
2022-09-25T09:13:42.282Z,20.18
2022-09-25T09:16:18.960Z,20.21
2022-09-25T09:18:49.895Z,20.21
2022-09-25T09:22:00.892Z,19.93
2022-09-25T09:24:38.571Z,19.90
2022-09-25T09:27:50.841Z,19.95
2022-09-25T09:30:30.679Z,19.65
2022-09-25T09:33:46.141Z,19.42
2022-09-25T09:36:51.209Z,19.13
2022-09-25T09:39:38.429Z,19.02
2022-09-25T09:42:27.952Z,19.17
2022-09-25T09:45:10.665Z,19.07
2022-09-25T09:48:03.754Z,19.20
2022-09-25T09:50:59.196Z,19.50
2022-09-25T09:53:31.338Z,19.99
2022-09-25T09:56:16.441Z,19.61
2022-09-25T09:58:52.764Z,19.32
2022-09-25T10:01:42.404Z,19.24
2022-09-25T10:04:13.089Z,19.12
2022-09-25T10:07:09.848Z,18.62
2022-09-25T10:09:37.501Z,18.61
2022-09-25T10:12:14.969Z,18.68
2022-09-25T10:14:47.052Z,18.88
2022-09-25T10:17:16.044Z,19.19
2022-09-25T10:19:57.521Z,19.68
2022-09-25T10:22:37.191Z,20.00
2022-09-25T10:25:07.052Z,20.36
2022-09-25T10:27:40.593Z,20.68
2022-09-25T10:30:11.933Z,20.93
2022-09-25T10:33:08.258Z,20.81
2022-09-25T10:35:39.617Z,20.57
2022-09-25T10:38:23.829Z,20.44
2022-09-25T10:41:03.111Z,20.52
2022-09-25T10:43:31.246Z,20.57
2022-09-25T10:46:15.734Z,20.22
2022-09-25T10:49:03.147Z,20.35
2022-09-25T10:51:32.617Z,19.70
2022-09-25T10:54:09.073Z,19.64
2022-09-25T10:56:39.484Z,19.85
2022-09-25T10:59:18.611Z,20.20
2022-09-25T11:01:49.534Z,20.05
2022-09-25T11:04:30.125Z,19.51
2022-09-25T11:07:02.400Z,19.28
2022-09-25T11:09:32.662Z,18.81
2022-09-25T11:12:24.014Z,18.81
2022-09-25T11:15:05.787Z,19.00
2022-09-25T11:17:42.448Z,19.13
2022-09-25T11:20:14.773Z,19.26
2022-09-25T11:22:50.399Z,19.23
2022-09-25T11:25:26.099Z,19.00
2022-09-25T11:28:26.993Z,18.49
2022-09-25T11:31:26.421Z,18.30
2022-09-25T11:34:18.583Z,18.27
2022-09-25T11:36:53.089Z,18.29
2022-09-25T11:40:01.596Z,18.23
2022-09-25T11:43:06.943Z,18.17
2022-09-25T11:45:46.991Z,18.19
2022-09-25T11:48:50.301Z,18.27
2022-09-25T11:51:40.163Z,18.37
2022-09-25T11:54:43.724Z,18.34
2022-09-25T11:57:19.970Z,18.30
2022-09-25T12:00:21.424Z,18.28
2022-09-25T12:03:55.089Z,18.42
2022-09-25T12:06:30.108Z,18.49
2022-09-25T12:09:16.265Z,18.46
2022-09-25T12:12:08.703Z,18.49
2022-09-25T12:14:57.579Z,18.40
2022-09-25T12:17:47.662Z,18.27
2022-09-25T12:20:43.395Z,18.15
2022-09-25T12:23:20.437Z,18.26
2022-09-25T12:26:06.464Z,18.21
2022-09-25T12:28:46.923Z,18.29
2022-09-25T12:31:42.960Z,18.45
2022-09-25T12:34:50.768Z,18.47
2022-09-25T12:37:38.786Z,18.71
2022-09-25T12:40:31.978Z,18.81
2022-09-25T12:43:53.066Z,18.79
2022-09-25T12:46:33.886Z,18.72
2022-09-25T12:49:14.018Z,18.71
2022-09-25T12:51:50.915Z,18.80
2022-09-25T12:54:34.676Z,18.84
2022-09-25T12:57:13.728Z,18.86
2022-09-25T13:00:09.319Z,18.91
2022-09-25T13:02:49.024Z,19.02
2022-09-25T13:05:26.275Z,18.97
2022-09-25T13:08:14.792Z,18.92
2022-09-25T13:10:50.428Z,18.86
2022-09-25T13:13:26.436Z,18.80
2022-09-25T13:15:59.969Z,18.66
2022-09-25T13:18:30.130Z,18.46
2022-09-25T13:21:02.486Z,18.60
2022-09-25T13:23:40.714Z,18.68
2022-09-25T13:26:15.417Z,18.85
2022-09-25T13:29:01.650Z,18.94
2022-09-25T13:31:32.108Z,19.06
2022-09-25T13:34:01.588Z,18.99
2022-09-25T13:36:39.724Z,18.93
2022-09-25T13:39:44.013Z,18.93
2022-09-25T13:42:16.518Z,19.06
2022-09-25T13:44:46.123Z,19.10
2022-09-25T13:47:24.879Z,19.14
2022-09-25T13:50:11.351Z,19.08
2022-09-25T13:52:39.508Z,18.84
2022-09-25T13:55:20.235Z,18.75
2022-09-25T13:58:01.395Z,18.64
2022-09-25T14:00:37.728Z,18.71
2022-09-25T14:03:06.570Z,18.73
2022-09-25T14:05:36.841Z,18.82
2022-09-25T14:08:12.716Z,18.84
2022-09-25T14:10:54.805Z,18.93
2022-09-25T14:13:23.747Z,19.01
2022-09-25T14:15:56.785Z,18.84
2022-09-25T14:18:44.283Z,18.84
2022-09-25T14:21:15.349Z,18.99
2022-09-25T14:24:11.705Z,19.07
2022-09-25T14:26:45.751Z,19.11
2022-09-25T14:29:20.722Z,19.14
2022-09-25T14:32:02.950Z,18.99
2022-09-25T14:34:49.248Z,18.96
2022-09-25T14:37:39.708Z,18.75
2022-09-25T14:40:33.485Z,18.70
2022-09-25T14:46:20.764Z,18.48
2022-09-25T14:49:24.169Z,18.48
2022-09-25T14:51:54.573Z,18.52
2022-09-25T14:54:25.944Z,18.71
2022-09-25T14:56:57.744Z,18.79
2022-09-25T14:59:39.800Z,18.80
2022-09-25T15:02:37.325Z,18.80
2022-09-25T15:05:26.956Z,18.85
2022-09-25T15:08:00.300Z,18.81
2022-09-25T15:10:34.016Z,18.53
2022-09-25T15:13:16.294Z,18.48
2022-09-25T15:16:16.911Z,18.51
2022-09-25T15:18:48.557Z,18.33
2022-09-25T15:24:14.529Z,18.11
2022-09-25T15:26:50.786Z,18.00
2022-09-25T15:29:21.209Z,17.92
2022-09-25T15:31:51.416Z,17.97
2022-09-25T15:34:27.834Z,17.92
2022-09-25T15:37:17.148Z,18.01
2022-09-25T15:39:45.559Z,18.10
2022-09-25T15:42:14.833Z,18.09
2022-09-25T15:44:42.737Z,18.21
2022-09-25T15:47:37.740Z,18.20
2022-09-25T15:50:15.549Z,18.17
2022-09-25T15:52:43.829Z,18.13
2022-09-25T15:55:16.893Z,18.22
2022-09-25T15:57:46.853Z,18.23
2022-09-25T16:00:40.137Z,18.24
2022-09-25T16:03:31.829Z,18.24
2022-09-25T16:06:03.874Z,18.13
2022-09-25T16:08:34.759Z,18.04
2022-09-25T16:11:10.264Z,18.02
2022-09-25T16:13:43.250Z,18.05
2022-09-25T16:16:23.407Z,18.11
2022-09-25T16:18:54.446Z,18.07
2022-09-25T16:21:33.889Z,18.04
2022-09-25T16:24:05.923Z,18.17
2022-09-25T16:26:44.244Z,18.09
2022-09-25T16:29:12.457Z,18.01
2022-09-25T16:31:41.888Z,18.03
2022-09-25T16:34:19.835Z,18.00
2022-09-25T16:36:48.749Z,17.97
2022-09-25T16:39:24.400Z,17.93
2022-09-25T16:41:52.361Z,17.99
2022-09-25T16:44:28.386Z,18.02
2022-09-25T16:46:56.920Z,18.00
2022-09-25T16:49:25.018Z,17.96
2022-09-25T16:51:56.625Z,17.83
2022-09-25T16:54:30.835Z,17.70
2022-09-25T16:57:02.459Z,17.63
2022-09-25T16:59:33.846Z,17.57
2022-09-25T17:02:20.119Z,17.52
2022-09-25T17:04:47.794Z,17.49
2022-09-25T17:07:16.077Z,17.36
2022-09-25T17:09:43.754Z,17.29
2022-09-25T17:12:20.441Z,17.13
2022-09-25T17:14:50.456Z,17.17
2022-09-25T17:17:20.762Z,17.08
2022-09-25T17:19:50.263Z,16.98
2022-09-25T17:22:18.638Z,16.98
2022-09-25T17:24:46.488Z,16.82
2022-09-25T17:27:15.062Z,16.86
2022-09-25T17:29:43.314Z,16.84
2022-09-25T17:32:17.824Z,16.72
2022-09-25T17:34:48.098Z,16.82
2022-09-25T17:37:16.063Z,16.74
2022-09-25T17:39:43.418Z,16.60
2022-09-25T17:42:12.488Z,16.57
2022-09-25T17:44:43.821Z,16.45
2022-09-25T17:47:14.044Z,16.32
2022-09-25T17:49:43.156Z,16.22
2022-09-25T17:52:17.537Z,16.13
2022-09-25T17:54:45.746Z,16.02
2022-09-25T17:57:13.923Z,16.02
2022-09-25T17:59:42.106Z,15.94
2022-09-25T18:02:17.112Z,16.05
2022-09-25T18:04:45.657Z,15.91
2022-09-25T18:07:14.401Z,16.01
2022-09-25T18:09:44.237Z,15.86
2022-09-25T18:12:11.656Z,15.73
2022-09-25T18:14:45.756Z,15.81
2022-09-25T18:17:15.683Z,15.65
2022-09-25T18:20:02.045Z,15.50
2022-09-25T18:22:29.571Z,15.41
2022-09-25T18:24:57.322Z,15.36
2022-09-25T18:27:31.411Z,15.23
2022-09-25T18:29:58.898Z,15.24
2022-09-25T18:32:26.977Z,15.23
2022-09-25T18:34:54.381Z,15.21
2022-09-25T18:37:22.249Z,15.15
2022-09-25T18:39:50.922Z,15.19
2022-09-25T18:42:19.086Z,15.13
2022-09-25T18:44:47.889Z,15.12
2022-09-25T18:47:15.361Z,15.12
2022-09-25T18:49:44.166Z,15.05
2022-09-25T18:52:11.762Z,14.92
2022-09-25T18:54:42.222Z,14.89
2022-09-25T18:57:11.087Z,14.80
2022-09-25T18:59:39.276Z,14.77
2022-09-25T19:02:40.316Z,14.66
2022-09-25T19:05:17.119Z,14.57
2022-09-25T19:07:46.291Z,14.54
2022-09-25T19:10:13.667Z,14.53
2022-09-25T19:12:41.174Z,14.58
2022-09-25T19:15:09.582Z,14.47
2022-09-25T19:17:37.850Z,14.48
2022-09-25T19:20:06.817Z,14.41
2022-09-25T19:22:36.146Z,14.29
2022-09-25T19:25:06.365Z,14.18
2022-09-25T19:27:34.866Z,14.23
2022-09-25T19:30:02.292Z,14.14
2022-09-25T19:32:30.017Z,14.08
2022-09-25T19:34:57.551Z,13.94
2022-09-25T19:37:29.730Z,13.94
2022-09-25T19:40:15.961Z,13.87
2022-09-25T19:42:44.758Z,13.78
2022-09-25T19:45:14.473Z,13.71
2022-09-25T19:47:42.364Z,13.66
2022-09-25T19:50:10.767Z,13.61
2022-09-25T19:52:38.622Z,13.55
2022-09-25T19:55:06.509Z,13.53
2022-09-25T19:57:36.824Z,13.47
2022-09-25T20:00:05.308Z,13.43
2022-09-25T20:02:36.213Z,13.39
2022-09-25T20:05:04.724Z,13.36
2022-09-25T20:07:32.108Z,13.40
2022-09-25T20:10:00.699Z,13.33
2022-09-25T20:12:30.142Z,13.29
2022-09-25T20:14:57.696Z,13.32
2022-09-25T20:17:26.361Z,13.29
2022-09-25T20:19:55.332Z,13.25
2022-09-25T20:22:23.179Z,13.15
2022-09-25T20:24:51.600Z,13.13
2022-09-25T20:27:23.469Z,13.07
2022-09-25T20:29:51.984Z,13.01
2022-09-25T20:32:19.734Z,12.97
2022-09-25T20:34:47.167Z,12.95
2022-09-25T20:37:14.999Z,12.88
2022-09-25T20:39:43.670Z,12.86
2022-09-25T20:42:12.313Z,12.78
2022-09-25T20:44:39.808Z,12.71
2022-09-25T20:47:07.208Z,12.70
2022-09-25T20:49:35.725Z,12.69
2022-09-25T20:52:03.839Z,12.69
2022-09-25T20:54:32.322Z,12.64
2022-09-25T20:56:59.750Z,12.54
2022-09-25T20:59:27.936Z,12.53
2022-09-25T21:01:55.592Z,12.47
2022-09-25T21:04:24.006Z,12.42
2022-09-25T21:06:51.408Z,12.32
2022-09-25T21:09:22.482Z,12.36
2022-09-25T21:11:50.475Z,12.36
2022-09-25T21:14:25.577Z,12.21
2022-09-25T21:16:59.097Z,12.15
2022-09-25T21:19:28.430Z,12.08
2022-09-25T21:21:56.994Z,12.07
2022-09-25T21:24:24.917Z,12.01
2022-09-25T21:26:52.287Z,11.96
2022-09-25T21:29:20.107Z,11.98
2022-09-25T21:31:50.703Z,11.93
2022-09-25T21:34:19.982Z,11.92
2022-09-25T21:36:49.070Z,11.83
2022-09-25T21:39:21.215Z,11.77
2022-09-25T21:41:49.654Z,11.75
2022-09-25T21:44:20.384Z,11.80
2022-09-25T21:46:50.448Z,11.81
2022-09-25T21:49:20.892Z,11.73
2022-09-25T21:51:49.737Z,11.77
2022-09-25T21:54:17.195Z,11.76
2022-09-25T21:56:45.391Z,11.77
2022-09-25T21:59:14.472Z,11.66
2022-09-25T22:01:43.003Z,11.57
2022-09-25T22:04:13.111Z,11.56
2022-09-25T22:06:47.804Z,11.47
2022-09-25T22:09:22.010Z,11.43
2022-09-25T22:11:51.283Z,11.42
2022-09-25T22:14:20.638Z,11.34
2022-09-25T22:16:51.857Z,11.33
2022-09-25T22:19:28.987Z,11.31
2022-09-25T22:21:58.972Z,11.33
2022-09-25T22:24:27.823Z,11.35
2022-09-25T22:26:56.611Z,11.35
2022-09-25T22:29:24.820Z,11.30
2022-09-25T22:31:52.775Z,11.35
2022-09-25T22:34:26.346Z,11.38
2022-09-25T22:36:58.992Z,11.38
2022-09-25T22:39:29.248Z,11.40
2022-09-25T22:41:57.863Z,11.30
2022-09-25T22:44:26.123Z,11.23
2022-09-25T22:46:54.278Z,11.20
2022-09-25T22:49:21.795Z,11.29
2022-09-25T22:51:50.033Z,11.23
2022-09-25T22:54:18.214Z,11.21
2022-09-25T22:56:45.575Z,11.21
2022-09-25T22:59:16.316Z,11.27
2022-09-25T23:01:55.689Z,11.33
2022-09-25T23:04:25.042Z,11.28
2022-09-25T23:06:52.619Z,11.26
2022-09-25T23:09:25.679Z,11.29
2022-09-25T23:11:55.030Z,11.31
2022-09-25T23:14:25.613Z,11.39
2022-09-25T23:16:55.362Z,11.37
2022-09-25T23:19:24.411Z,11.39
2022-09-25T23:21:52.959Z,11.39
2022-09-25T23:24:21.929Z,11.37
2022-09-25T23:26:50.063Z,11.33
2022-09-25T23:29:20.478Z,11.28
2022-09-25T23:31:50.986Z,11.30
2022-09-25T23:34:19.733Z,11.31
2022-09-25T23:36:47.180Z,11.40
2022-09-25T23:39:16.762Z,11.38
2022-09-25T23:41:44.538Z,11.39
2022-09-25T23:44:12.522Z,11.41
2022-09-25T23:46:41.849Z,11.45
2022-09-25T23:49:10.303Z,11.37
2022-09-25T23:51:38.926Z,11.30
2022-09-25T23:54:06.814Z,11.28
2022-09-25T23:56:36.027Z,11.27
2022-09-25T23:59:04.365Z,11.28
